createdAt,value
2018-08-25T00:01:37.407Z,6.20
2018-08-25T00:04:06.793Z,7.83
2018-08-25T00:06:35.323Z,10.43
2018-08-25T00:09:05.244Z,6.87
2018-08-25T00:11:33.777Z,6.70
2018-08-25T00:14:02.235Z,10.23
2018-08-25T00:16:30.780Z,7.53
2018-08-25T00:18:59.243Z,8.87
2018-08-25T00:21:27.739Z,10.30
2018-08-25T00:23:56.253Z,8.67
2018-08-25T00:26:24.736Z,14.47
2018-08-25T00:28:53.332Z,10.60
2018-08-25T00:31:21.952Z,12.60
2018-08-25T00:33:50.814Z,10.87
2018-08-25T00:36:19.301Z,8.70
2018-08-25T00:38:47.839Z,8.63
2018-08-25T00:41:16.324Z,6.77
2018-08-25T00:43:44.797Z,5.17
2018-08-25T00:46:13.321Z,3.63
2018-08-25T00:48:41.788Z,6.43
2018-08-25T00:51:10.260Z,4.60
2018-08-25T00:53:38.716Z,5.37
2018-08-25T00:56:07.212Z,4.90
2018-08-25T00:58:35.681Z,7.40
2018-08-25T01:01:04.389Z,7.83
2018-08-25T01:03:32.840Z,5.87
2018-08-25T01:06:01.309Z,4.37
2018-08-25T01:08:29.762Z,6.67
2018-08-25T01:10:58.229Z,7.30
2018-08-25T01:13:26.692Z,4.03
2018-08-25T01:15:55.167Z,5.17
2018-08-25T01:18:23.605Z,8.00
2018-08-25T01:20:52.565Z,5.87
2018-08-25T01:23:22.012Z,5.27
2018-08-25T01:25:50.454Z,7.03
2018-08-25T01:28:18.931Z,7.13
2018-08-25T01:30:47.368Z,5.53
2018-08-25T01:33:15.856Z,5.70
2018-08-25T01:35:44.301Z,7.23
2018-08-25T01:38:12.771Z,3.80
2018-08-25T01:40:41.213Z,8.63
2018-08-25T01:43:09.692Z,7.47
2018-08-25T01:45:38.251Z,7.80
2018-08-25T01:48:06.712Z,9.37
2018-08-25T01:50:35.208Z,5.27
2018-08-25T01:53:03.691Z,9.17
2018-08-25T01:55:32.184Z,7.30
2018-08-25T01:58:00.672Z,10.60
2018-08-25T02:00:29.179Z,8.63
2018-08-25T02:02:57.663Z,11.57
2018-08-25T02:05:29.526Z,11.43
2018-08-25T02:07:58.566Z,6.60
2018-08-25T02:10:27.068Z,11.17
2018-08-25T02:12:55.825Z,9.60
2018-08-25T02:15:24.327Z,7.27
2018-08-25T02:17:52.899Z,7.70
2018-08-25T02:20:21.380Z,6.87
2018-08-25T02:22:49.845Z,6.57
2018-08-25T02:25:18.319Z,3.67
2018-08-25T02:27:46.839Z,8.20
2018-08-25T02:30:15.365Z,10.23
2018-08-25T02:32:43.865Z,9.97
2018-08-25T02:35:12.376Z,8.13
2018-08-25T02:37:40.890Z,8.43
2018-08-25T02:40:09.349Z,7.93
2018-08-25T02:42:37.872Z,8.43
2018-08-25T02:45:06.350Z,8.63
2018-08-25T02:47:35.207Z,6.63
2018-08-25T02:50:03.682Z,4.57
2018-08-25T02:52:32.164Z,5.93
2018-08-25T02:55:00.643Z,6.00
2018-08-25T02:57:29.270Z,6.27
2018-08-25T02:59:57.742Z,6.17
2018-08-25T03:02:26.338Z,4.67
2018-08-25T03:04:54.791Z,3.50
2018-08-25T03:07:23.273Z,5.40
2018-08-25T03:09:51.732Z,5.60
2018-08-25T03:12:20.193Z,6.97
2018-08-25T03:14:48.657Z,5.33
2018-08-25T03:17:17.157Z,6.17
2018-08-25T03:19:45.614Z,4.67
2018-08-25T03:22:14.089Z,6.47
2018-08-25T03:24:42.630Z,5.07
2018-08-25T03:29:46.019Z,4.43
2018-08-25T03:32:14.496Z,3.43
2018-08-25T03:34:42.985Z,5.43
2018-08-25T03:37:11.697Z,6.00
2018-08-25T03:39:40.157Z,5.67
2018-08-25T03:42:08.618Z,3.90
2018-08-25T03:44:37.073Z,7.27
2018-08-25T03:47:05.643Z,6.53
2018-08-25T03:49:34.109Z,5.10
2018-08-25T03:52:02.581Z,3.83
2018-08-25T03:54:31.062Z,4.33
2018-08-25T03:56:59.556Z,6.17
2018-08-25T03:59:28.033Z,7.03
2018-08-25T04:01:56.531Z,10.00
2018-08-25T04:04:25.003Z,4.90
2018-08-25T04:06:53.470Z,5.03
2018-08-25T04:09:21.958Z,4.50
2018-08-25T04:11:50.452Z,5.13
2018-08-25T04:14:19.025Z,7.67
2018-08-25T04:16:47.503Z,5.47
2018-08-25T04:19:18.163Z,7.10
2018-08-25T04:21:46.673Z,6.33
2018-08-25T04:24:15.119Z,5.57
2018-08-25T04:26:43.684Z,6.40
2018-08-25T04:29:12.304Z,5.63
2018-08-25T04:31:40.797Z,5.90
2018-08-25T04:34:09.296Z,5.83
2018-08-25T04:36:37.755Z,10.37
2018-08-25T04:39:07.459Z,5.60
2018-08-25T04:41:36.144Z,4.73
2018-08-25T04:44:04.608Z,5.33
2018-08-25T04:46:33.072Z,5.50
2018-08-25T04:49:01.607Z,5.70
2018-08-25T04:51:30.221Z,6.10
2018-08-25T04:53:58.740Z,5.73
2018-08-25T04:56:27.197Z,7.80
2018-08-25T04:58:55.742Z,6.27
2018-08-25T05:01:24.190Z,6.23
2018-08-25T05:03:52.700Z,6.03
2018-08-25T05:06:21.254Z,5.87
2018-08-25T05:08:49.843Z,5.87
2018-08-25T05:11:18.306Z,8.20
2018-08-25T05:13:46.851Z,8.50
2018-08-25T05:16:15.276Z,7.60
2018-08-25T05:18:43.764Z,8.00
2018-08-25T05:21:12.208Z,7.60
2018-08-25T05:23:40.693Z,5.73
2018-08-25T05:26:09.257Z,5.43
2018-08-25T05:28:38.424Z,5.67
2018-08-25T05:31:07.089Z,8.97
2018-08-25T05:33:35.659Z,6.50
2018-08-25T05:36:04.124Z,5.50
2018-08-25T05:38:32.605Z,7.30
2018-08-25T05:41:01.085Z,8.63
2018-08-25T05:43:29.569Z,8.50
2018-08-25T05:45:58.076Z,11.83
2018-08-25T05:48:26.556Z,7.60
2018-08-25T05:50:55.035Z,6.93
2018-08-25T05:53:23.533Z,11.93
2018-08-25T05:55:51.989Z,8.70
2018-08-25T05:58:20.513Z,5.23
2018-08-25T06:00:49.108Z,8.17
2018-08-25T06:03:17.568Z,8.73
2018-08-25T06:05:46.028Z,10.47
2018-08-25T06:08:14.492Z,7.50
2018-08-25T06:10:42.963Z,11.07
2018-08-25T06:13:11.449Z,5.63
2018-08-25T06:15:39.913Z,14.37
2018-08-25T06:18:08.392Z,8.93
2018-08-25T06:20:36.853Z,17.27
2018-08-25T06:23:05.362Z,9.57
2018-08-25T06:25:33.807Z,8.60
2018-08-25T06:28:02.289Z,7.97
2018-08-25T06:30:30.828Z,12.27
2018-08-25T06:32:59.321Z,11.83
2018-08-25T06:35:27.774Z,8.27
2018-08-25T06:37:56.258Z,11.23
2018-08-25T06:40:24.684Z,9.00
2018-08-25T06:42:53.217Z,6.70
2018-08-25T06:45:21.714Z,9.07
2018-08-25T06:47:50.519Z,11.17
2018-08-25T06:50:19.006Z,10.20
2018-08-25T06:52:47.467Z,10.47
2018-08-25T06:55:15.951Z,7.63
2018-08-25T06:57:44.388Z,10.13
2018-08-25T07:00:12.877Z,9.60
2018-08-25T07:02:41.421Z,8.93
2018-08-25T07:05:09.917Z,10.30
2018-08-25T07:07:38.365Z,9.63
2018-08-25T07:10:06.876Z,13.57
2018-08-25T07:12:35.341Z,10.57
2018-08-25T07:15:04.264Z,15.67
2018-08-25T07:17:32.766Z,14.30
2018-08-25T07:20:01.297Z,13.00
2018-08-25T07:22:29.816Z,11.43
2018-08-25T07:24:58.348Z,10.67
2018-08-25T07:27:26.922Z,13.20
2018-08-25T07:29:55.404Z,8.63
2018-08-25T07:32:23.925Z,10.10
2018-08-25T07:34:52.553Z,7.10
2018-08-25T07:37:22.100Z,7.23
2018-08-25T07:39:50.611Z,11.63
2018-08-25T07:42:19.067Z,6.30
2018-08-25T07:44:47.605Z,6.80
2018-08-25T07:47:16.080Z,6.90
2018-08-25T07:49:50.532Z,9.00
2018-08-25T07:52:20.011Z,7.53
2018-08-25T07:54:48.505Z,7.37
2018-08-25T07:57:18.030Z,7.97
2018-08-25T07:59:46.553Z,9.57
2018-08-25T08:02:15.023Z,9.73
2018-08-25T08:04:43.570Z,6.20
2018-08-25T08:07:12.200Z,7.27
2018-08-25T08:09:40.678Z,8.47
2018-08-25T08:12:09.201Z,7.20
2018-08-25T08:14:37.712Z,10.43
2018-08-25T08:17:06.309Z,8.40
2018-08-25T08:19:34.829Z,8.47
2018-08-25T08:22:04.605Z,8.07
2018-08-25T08:24:33.332Z,11.00
2018-08-25T08:27:01.818Z,8.53
2018-08-25T08:29:30.304Z,11.00
2018-08-25T08:31:58.760Z,7.17
2018-08-25T08:34:28.456Z,5.97
2018-08-25T08:36:57.212Z,9.00
2018-08-25T08:39:25.716Z,8.37
2018-08-25T08:41:54.273Z,4.93
2018-08-25T08:44:22.716Z,6.40
2018-08-25T08:46:51.192Z,37.33
2018-08-25T08:49:19.709Z,30.70
2018-08-25T08:51:48.189Z,18.27
2018-08-25T08:54:16.937Z,15.77
2018-08-25T08:56:45.396Z,10.17
2018-08-25T08:59:13.865Z,6.43
2018-08-25T09:01:42.688Z,7.07
2018-08-25T09:04:11.170Z,47.33
2018-08-25T09:06:39.659Z,38.00
2018-08-25T09:09:08.783Z,41.77
2018-08-25T09:11:37.383Z,24.20
2018-08-25T09:14:05.983Z,13.23
2018-08-25T09:16:34.464Z,11.73
2018-08-25T09:19:02.941Z,8.87
2018-08-25T09:21:31.449Z,8.17
2018-08-25T09:23:59.994Z,4.97
2018-08-25T09:26:28.693Z,7.17
2018-08-25T09:28:57.320Z,6.93
2018-08-25T09:31:25.872Z,4.70
2018-08-25T09:33:54.355Z,9.47
2018-08-25T09:36:23.994Z,5.07
2018-08-25T09:38:52.524Z,4.47
2018-08-25T09:41:21.127Z,5.10
2018-08-25T09:43:50.136Z,7.73
2018-08-25T09:46:18.707Z,4.63
2018-08-25T09:48:47.263Z,7.30
2018-08-25T09:51:15.825Z,5.30
2018-08-25T09:53:44.285Z,5.30
2018-08-25T09:56:12.824Z,4.73
2018-08-25T09:58:41.317Z,4.93
2018-08-25T10:01:15.192Z,5.77
2018-08-25T10:03:43.665Z,6.30
2018-08-25T10:06:12.173Z,3.93
2018-08-25T10:08:40.689Z,6.93
2018-08-25T10:11:09.199Z,4.47
2018-08-25T10:13:37.708Z,6.70
2018-08-25T10:16:06.186Z,6.43
2018-08-25T10:18:34.666Z,5.43
2018-08-25T10:21:03.156Z,5.77
2018-08-25T10:23:31.648Z,6.37
2018-08-25T10:26:00.129Z,5.47
2018-08-25T10:28:28.632Z,5.53
2018-08-25T10:30:57.143Z,9.27
2018-08-25T10:33:25.634Z,6.23
2018-08-25T10:35:54.113Z,5.90
2018-08-25T10:38:22.580Z,4.13
2018-08-25T10:40:51.052Z,3.63
2018-08-25T10:43:19.517Z,3.20
2018-08-25T10:45:48.017Z,4.17
2018-08-25T10:48:16.533Z,4.30
2018-08-25T10:50:45.025Z,3.37
2018-08-25T10:53:13.545Z,6.00
2018-08-25T10:55:42.045Z,3.30
2018-08-25T10:58:10.559Z,3.27
2018-08-25T11:00:39.225Z,6.87
2018-08-25T11:03:07.575Z,3.50
2018-08-25T11:05:36.048Z,4.40
2018-08-25T11:08:06.819Z,5.80
2018-08-25T11:10:35.298Z,14.57
2018-08-25T11:13:04.796Z,26.13
2018-08-25T11:15:33.299Z,25.70
2018-08-25T11:18:01.805Z,14.40
2018-08-25T11:20:30.310Z,12.87
2018-08-25T11:22:59.847Z,17.37
2018-08-25T11:25:29.016Z,8.93
2018-08-25T11:27:57.502Z,12.23
2018-08-25T11:30:26.862Z,9.67
2018-08-25T11:32:55.335Z,7.50
2018-08-25T11:35:23.839Z,6.43
2018-08-25T11:37:52.481Z,5.00
2018-08-25T11:40:20.867Z,11.10
2018-08-25T11:42:49.365Z,6.77
2018-08-25T11:45:17.826Z,6.13
2018-08-25T11:47:46.357Z,6.53
2018-08-25T11:50:14.861Z,4.13
2018-08-25T11:52:43.432Z,3.50
2018-08-25T11:55:11.965Z,3.70
2018-08-25T11:57:40.617Z,2.67
2018-08-25T12:00:09.283Z,4.20
2018-08-25T12:02:38.621Z,3.23
2018-08-25T12:05:07.346Z,1.67
2018-08-25T12:07:35.826Z,2.90
2018-08-25T12:10:04.318Z,1.77
2018-08-25T12:12:32.865Z,2.53
2018-08-25T12:15:01.330Z,4.07
2018-08-25T12:17:29.953Z,5.83
2018-08-25T12:19:58.580Z,2.10
2018-08-25T12:25:26.280Z,3.07
2018-08-25T12:27:54.804Z,2.10
2018-08-25T12:30:23.346Z,1.80
2018-08-25T12:32:51.940Z,2.90
2018-08-25T12:35:20.398Z,2.43
2018-08-25T12:37:49.325Z,2.53
2018-08-25T12:40:17.919Z,2.93
2018-08-25T12:42:46.427Z,5.00
2018-08-25T12:45:14.920Z,3.33
2018-08-25T12:47:43.443Z,3.80
2018-08-25T12:50:11.939Z,2.07
2018-08-25T12:52:40.440Z,2.40
2018-08-25T12:55:08.935Z,8.33
2018-08-25T12:57:38.248Z,12.83
2018-08-25T13:00:07.273Z,8.07
2018-08-25T13:02:35.783Z,9.60
2018-08-25T13:05:04.310Z,19.87
2018-08-25T13:07:33.091Z,15.10
2018-08-25T13:10:02.205Z,24.87
2018-08-25T13:12:30.810Z,13.33
2018-08-25T13:14:59.300Z,9.33
2018-08-25T13:17:27.797Z,15.43
2018-08-25T13:19:56.297Z,13.13
2018-08-25T13:22:24.793Z,13.40
2018-08-25T13:24:53.315Z,16.93
2018-08-25T13:27:21.792Z,19.97
2018-08-25T13:29:50.372Z,15.80
2018-08-25T13:32:18.903Z,15.87
2018-08-25T13:34:47.425Z,5.43
2018-08-25T13:37:15.898Z,11.00
2018-08-25T13:39:44.371Z,11.40
2018-08-25T13:42:12.869Z,7.63
2018-08-25T13:44:41.342Z,8.97
2018-08-25T13:47:09.814Z,3.40
2018-08-25T13:49:38.400Z,3.67
2018-08-25T13:52:07.825Z,5.17
2018-08-25T13:54:36.329Z,3.23
2018-08-25T13:57:05.698Z,2.70
2018-08-25T13:59:34.165Z,7.00
2018-08-25T14:02:09.923Z,5.10
2018-08-25T14:04:38.401Z,2.47
2018-08-25T14:07:08.968Z,2.43
2018-08-25T14:09:37.564Z,5.10
2018-08-25T14:12:06.039Z,7.27
2018-08-25T14:14:34.595Z,3.13
2018-08-25T14:17:06.158Z,3.30
2018-08-25T14:19:34.651Z,1.83
2018-08-25T14:22:03.114Z,4.30
2018-08-25T14:24:31.597Z,2.87
2018-08-25T14:27:00.058Z,3.87
2018-08-25T14:29:28.544Z,5.07
2018-08-25T14:31:57.118Z,2.17
2018-08-25T14:34:25.587Z,3.50
2018-08-25T14:36:54.083Z,2.43
2018-08-25T14:39:22.609Z,2.43
2018-08-25T14:41:51.103Z,2.10
2018-08-25T14:44:19.581Z,3.00
2018-08-25T14:46:48.046Z,1.73
2018-08-25T14:49:16.621Z,1.60
2018-08-25T14:51:45.128Z,3.73
2018-08-25T14:54:13.621Z,1.97
2018-08-25T14:56:42.079Z,1.10
2018-08-25T14:59:15.053Z,2.63
2018-08-25T15:01:43.514Z,1.90
2018-08-25T15:04:12.011Z,1.67
2018-08-25T15:06:40.481Z,4.23
2018-08-25T15:09:10.798Z,1.40
2018-08-25T15:11:39.275Z,3.33
2018-08-25T15:14:07.773Z,2.43
2018-08-25T15:16:36.239Z,2.30
2018-08-25T15:19:04.996Z,3.43
2018-08-25T15:21:33.528Z,5.47
2018-08-25T15:24:02.026Z,2.53
2018-08-25T15:26:30.533Z,2.30
2018-08-25T15:28:59.057Z,2.30
2018-08-25T15:31:27.549Z,2.03
2018-08-25T15:33:56.050Z,2.53
2018-08-25T15:36:55.475Z,3.37
2018-08-25T15:39:25.083Z,2.00
2018-08-25T15:41:54.561Z,4.93
2018-08-25T15:44:23.176Z,2.10
2018-08-25T15:46:51.648Z,3.47
2018-08-25T15:49:20.135Z,3.03
2018-08-25T15:51:48.627Z,3.40
2018-08-25T15:54:18.064Z,3.30
2018-08-25T15:56:46.541Z,7.50
2018-08-25T15:59:15.035Z,18.43
2018-08-25T16:01:43.513Z,3.60
2018-08-25T16:04:12.218Z,3.23
2018-08-25T16:06:40.669Z,2.87
2018-08-25T16:09:10.100Z,5.43
2018-08-25T16:11:38.663Z,6.63
2018-08-25T16:14:07.075Z,5.53
2018-08-25T16:16:35.555Z,4.17
2018-08-25T16:19:04.098Z,3.97
2018-08-25T16:21:32.594Z,2.43
2018-08-25T16:24:01.095Z,2.43
2018-08-25T16:26:29.623Z,3.97
2018-08-25T16:28:58.157Z,3.30
2018-08-25T16:31:26.664Z,3.70
2018-08-25T16:33:55.145Z,3.47
2018-08-25T16:36:23.632Z,2.53
2018-08-25T16:38:52.112Z,3.40
2018-08-25T16:41:20.578Z,7.50
2018-08-25T16:43:49.044Z,3.63
2018-08-25T16:46:17.567Z,6.47
2018-08-25T16:48:46.062Z,2.60
2018-08-25T16:51:14.548Z,2.77
2018-08-25T16:53:43.055Z,3.23
2018-08-25T16:56:11.534Z,5.60
2018-08-25T16:58:40.001Z,2.07
2018-08-25T17:01:08.488Z,3.10
2018-08-25T17:03:37.970Z,1.70
2018-08-25T17:06:06.448Z,6.70
2018-08-25T17:08:34.961Z,2.10
2018-08-25T17:11:03.452Z,2.50
2018-08-25T17:13:31.953Z,9.13
2018-08-25T17:16:00.460Z,15.33
2018-08-25T17:18:28.937Z,4.40
2018-08-25T17:20:57.465Z,4.10
2018-08-25T17:23:26.918Z,6.03
2018-08-25T17:25:55.443Z,10.70
2018-08-25T17:28:23.900Z,5.17
2018-08-25T17:30:52.402Z,5.37
2018-08-25T17:33:20.887Z,2.40
2018-08-25T17:35:49.393Z,6.43
2018-08-25T17:38:17.899Z,7.17
2018-08-25T17:40:47.096Z,3.80
2018-08-25T17:43:15.600Z,10.47
2018-08-25T17:45:44.090Z,21.97
2018-08-25T17:48:12.689Z,14.73
2018-08-25T17:50:41.212Z,22.17
2018-08-25T17:53:09.712Z,12.50
2018-08-25T17:55:39.697Z,10.07
2018-08-25T17:58:08.254Z,7.80
2018-08-25T18:00:36.835Z,7.87
2018-08-25T18:03:05.310Z,11.60
2018-08-25T18:05:33.810Z,9.10
2018-08-25T18:08:02.598Z,11.33
2018-08-25T18:10:31.090Z,9.27
2018-08-25T18:12:59.556Z,9.40
2018-08-25T18:15:28.111Z,10.73
2018-08-25T18:17:56.660Z,17.80
2018-08-25T18:20:25.154Z,28.07
2018-08-25T18:22:53.636Z,19.50
2018-08-25T18:25:22.120Z,26.53
2018-08-25T18:27:51.422Z,27.17
2018-08-25T18:30:20.973Z,25.87
2018-08-25T18:32:49.394Z,24.40
2018-08-25T18:35:18.009Z,16.17
2018-08-25T18:37:46.525Z,28.17
2018-08-25T18:40:15.008Z,38.10
2018-08-25T18:42:43.561Z,26.43
2018-08-25T18:45:12.074Z,24.03
2018-08-25T18:47:40.576Z,19.40
2018-08-25T18:50:09.117Z,16.20
2018-08-25T18:52:38.591Z,14.50
2018-08-25T18:55:07.218Z,14.77
2018-08-25T18:57:35.702Z,16.13
2018-08-25T19:00:04.208Z,19.30
2018-08-25T19:02:32.739Z,21.33
2018-08-25T19:05:01.314Z,21.13
2018-08-25T19:07:29.869Z,13.27
2018-08-25T19:09:58.464Z,14.00
2018-08-25T19:12:26.934Z,18.50
2018-08-25T19:14:55.444Z,11.47
2018-08-25T19:17:24.094Z,13.97
2018-08-25T19:19:52.572Z,15.83
2018-08-25T19:22:21.100Z,18.33
2018-08-25T19:24:49.692Z,15.40
2018-08-25T19:27:18.520Z,18.63
2018-08-25T19:29:47.252Z,18.00
2018-08-25T19:32:15.763Z,21.23
2018-08-25T19:34:44.256Z,10.03
2018-08-25T19:37:12.762Z,6.57
2018-08-25T19:39:41.380Z,4.90
2018-08-25T19:42:09.884Z,4.73
2018-08-25T19:44:38.361Z,6.63
2018-08-25T19:47:06.971Z,3.97
2018-08-25T19:49:35.477Z,7.93
2018-08-25T19:52:04.286Z,3.47
2018-08-25T19:54:32.916Z,3.87
2018-08-25T19:57:01.748Z,3.40
2018-08-25T19:59:30.241Z,4.43
2018-08-25T20:01:58.753Z,2.63
2018-08-25T20:04:27.253Z,4.33
2018-08-25T20:06:55.739Z,5.23
2018-08-25T20:09:24.251Z,3.53
2018-08-25T20:11:52.829Z,3.50
2018-08-25T20:14:21.318Z,3.43
2018-08-25T20:16:49.795Z,6.00
2018-08-25T20:19:18.576Z,3.77
2018-08-25T20:21:47.085Z,5.13
2018-08-25T20:24:15.554Z,2.60
2018-08-25T20:26:44.149Z,3.87
2018-08-25T20:29:13.365Z,3.90
2018-08-25T20:31:42.530Z,4.93
2018-08-25T20:34:12.132Z,6.03
2018-08-25T20:36:40.639Z,10.77
2018-08-25T20:39:09.852Z,5.67
2018-08-25T20:41:38.373Z,5.53
2018-08-25T20:44:06.961Z,5.43
2018-08-25T20:46:35.432Z,13.43
2018-08-25T20:49:04.965Z,7.27
2018-08-25T20:51:34.340Z,6.53
2018-08-25T20:54:03.179Z,8.20
2018-08-25T20:56:32.425Z,8.23
2018-08-25T20:59:01.540Z,5.93
2018-08-25T21:01:30.068Z,7.00
2018-08-25T21:03:58.544Z,6.63
2018-08-25T21:06:27.146Z,7.67
2018-08-25T21:08:55.678Z,5.30
2018-08-25T21:11:24.160Z,7.17
2018-08-25T21:13:52.634Z,7.47
2018-08-25T21:16:21.294Z,6.57
2018-08-25T21:18:49.757Z,8.53
2018-08-25T21:21:18.260Z,4.63
2018-08-25T21:23:46.740Z,6.00
2018-08-25T21:26:16.120Z,3.57
2018-08-25T21:28:44.931Z,4.20
2018-08-25T21:31:14.026Z,7.13
2018-08-25T21:33:42.826Z,4.67
2018-08-25T21:36:11.276Z,3.90
2018-08-25T21:38:39.789Z,4.53
2018-08-25T21:41:08.344Z,7.07
2018-08-25T21:43:36.966Z,4.60
2018-08-25T21:46:05.776Z,4.77
2018-08-25T21:48:34.285Z,4.83
2018-08-25T21:51:02.782Z,4.70
2018-08-25T21:53:31.237Z,6.43
2018-08-25T21:56:00.254Z,4.17
2018-08-25T21:58:28.828Z,5.20
2018-08-25T22:00:58.046Z,4.33
2018-08-25T22:03:27.762Z,4.07
2018-08-25T22:05:57.046Z,3.43
2018-08-25T22:08:25.696Z,6.10
2018-08-25T22:10:54.552Z,4.50
2018-08-25T22:13:23.299Z,4.93
2018-08-25T22:15:51.784Z,3.30
2018-08-25T22:18:21.296Z,2.93
2018-08-25T22:20:49.804Z,5.50
2018-08-25T22:23:18.889Z,7.90
2018-08-25T22:25:47.451Z,4.80
2018-08-25T22:28:16.338Z,5.83
2018-08-25T22:30:45.060Z,7.23
2018-08-25T22:33:13.590Z,10.07
2018-08-25T22:35:42.048Z,7.10
2018-08-25T22:38:10.900Z,8.23
2018-08-25T22:40:39.620Z,5.80
2018-08-25T22:43:08.232Z,9.63
2018-08-25T22:45:36.709Z,24.47
2018-08-25T22:48:05.225Z,47.27
2018-08-25T22:50:35.433Z,9.27
2018-08-25T22:53:03.913Z,7.80
2018-08-25T22:55:32.377Z,5.20
2018-08-25T22:58:01.608Z,5.03
2018-08-25T23:00:30.137Z,4.87
2018-08-25T23:02:58.593Z,4.83
2018-08-25T23:05:27.232Z,4.43
2018-08-25T23:07:55.687Z,4.30
2018-08-25T23:10:24.195Z,5.17
2018-08-25T23:12:52.649Z,5.20
2018-08-25T23:15:21.121Z,4.77
2018-08-25T23:17:49.578Z,5.33
2018-08-25T23:20:18.050Z,4.87
2018-08-25T23:22:46.809Z,3.97
2018-08-25T23:25:15.375Z,4.30
2018-08-25T23:27:43.891Z,6.47
2018-08-25T23:30:12.428Z,6.07
2018-08-25T23:32:41.032Z,16.03
2018-08-25T23:35:09.499Z,14.97
2018-08-25T23:37:38.009Z,4.47
2018-08-25T23:40:06.482Z,6.23
2018-08-25T23:42:34.930Z,6.03
2018-08-25T23:45:03.458Z,5.90
2018-08-25T23:47:31.916Z,5.33
2018-08-25T23:50:00.417Z,27.17
2018-08-25T23:52:33.167Z,6.57
2018-08-25T23:55:01.672Z,22.43
2018-08-25T23:57:30.173Z,8.00
2018-08-25T23:59:58.830Z,8.90
